sensor_id;sensor_type;location;lat;lon;timestamp;P1;durP1;ratioP1;P2;durP2;ratioP2
69789;SDS011;57064;52.046;4.800;2023-05-16T00:00:53;10.00;;;2.30;;
69789;SDS011;57064;52.046;4.800;2023-05-16T00:03:19;19.27;;;2.88;;
69789;SDS011;57064;52.046;4.800;2023-05-16T00:05:45;12.80;;;2.67;;
69789;SDS011;57064;52.046;4.800;2023-05-16T00:08:12;10.68;;;3.10;;
69789;SDS011;57064;52.046;4.800;2023-05-16T00:10:38;16.67;;;2.30;;
69789;SDS011;57064;52.046;4.800;2023-05-16T00:13:04;12.25;;;2.25;;
69789;SDS011;57064;52.046;4.800;2023-05-16T00:15:31;14.90;;;2.13;;
69789;SDS011;57064;52.046;4.800;2023-05-16T00:17:57;10.50;;;2.42;;
69789;SDS011;57064;52.046;4.800;2023-05-16T00:20:24;12.00;;;2.25;;
69789;SDS011;57064;52.046;4.800;2023-05-16T00:22:52;11.55;;;2.75;;
69789;SDS011;57064;52.046;4.800;2023-05-16T00:25:19;10.05;;;2.05;;
69789;SDS011;57064;52.046;4.800;2023-05-16T00:27:47;11.95;;;2.35;;
69789;SDS011;57064;52.046;4.800;2023-05-16T00:30:13;16.70;;;3.17;;
69789;SDS011;57064;52.046;4.800;2023-05-16T00:32:39;12.43;;;2.60;;
69789;SDS011;57064;52.046;4.800;2023-05-16T00:35:05;15.75;;;3.08;;
69789;SDS011;57064;52.046;4.800;2023-05-16T00:37:34;22.65;;;2.70;;
69789;SDS011;57064;52.046;4.800;2023-05-16T00:40:00;10.45;;;2.30;;
69789;SDS011;57064;52.046;4.800;2023-05-16T00:42:26;6.93;;;2.72;;
69789;SDS011;57064;52.046;4.800;2023-05-16T00:44:52;9.27;;;2.65;;
69789;SDS011;57064;52.046;4.800;2023-05-16T00:47:18;12.95;;;2.95;;
69789;SDS011;57064;52.046;4.800;2023-05-16T00:49:44;11.18;;;2.28;;
69789;SDS011;57064;52.046;4.800;2023-05-16T00:52:11;13.10;;;2.35;;
69789;SDS011;57064;52.046;4.800;2023-05-16T00:54:37;17.33;;;3.22;;
69789;SDS011;57064;52.046;4.800;2023-05-16T00:57:03;16.63;;;2.90;;
69789;SDS011;57064;52.046;4.800;2023-05-16T00:59:30;9.88;;;2.85;;
69789;SDS011;57064;52.046;4.800;2023-05-16T01:01:57;13.07;;;2.92;;
69789;SDS011;57064;52.046;4.800;2023-05-16T01:04:23;16.05;;;3.25;;
69789;SDS011;57064;52.046;4.800;2023-05-16T01:06:50;12.40;;;2.90;;
69789;SDS011;57064;52.046;4.800;2023-05-16T01:09:17;10.65;;;2.80;;
69789;SDS011;57064;52.046;4.800;2023-05-16T01:11:51;18.08;;;3.42;;
69789;SDS011;57064;52.046;4.800;2023-05-16T01:26:04;8.90;;;2.75;;
69789;SDS011;57064;52.046;4.800;2023-05-16T01:28:40;9.60;;;2.75;;
69789;SDS011;57064;52.046;4.800;2023-05-16T01:31:08;21.42;;;3.40;;
69789;SDS011;57064;52.046;4.800;2023-05-16T01:33:34;11.95;;;2.92;;
69789;SDS011;57064;52.046;4.800;2023-05-16T01:38:42;13.65;;;2.90;;
69789;SDS011;57064;52.046;4.800;2023-05-16T01:41:24;11.27;;;2.75;;
69789;SDS011;57064;52.046;4.800;2023-05-16T01:44:24;17.42;;;3.45;;
69789;SDS011;57064;52.046;4.800;2023-05-16T01:46:55;20.00;;;3.50;;
69789;SDS011;57064;52.046;4.800;2023-05-16T01:49:26;16.20;;;4.05;;
69789;SDS011;57064;52.046;4.800;2023-05-16T01:52:07;13.25;;;3.42;;
69789;SDS011;57064;52.046;4.800;2023-05-16T01:54:37;12.05;;;3.70;;
69789;SDS011;57064;52.046;4.800;2023-05-16T01:57:04;10.65;;;3.65;;
69789;SDS011;57064;52.046;4.800;2023-05-16T01:59:32;13.77;;;3.35;;
69789;SDS011;57064;52.046;4.800;2023-05-16T02:01:58;12.98;;;2.90;;
69789;SDS011;57064;52.046;4.800;2023-05-16T02:04:25;12.18;;;2.58;;
69789;SDS011;57064;52.046;4.800;2023-05-16T02:06:51;12.27;;;2.60;;
69789;SDS011;57064;52.046;4.800;2023-05-16T02:09:17;9.52;;;2.58;;
69789;SDS011;57064;52.046;4.800;2023-05-16T02:11:43;9.20;;;2.83;;
69789;SDS011;57064;52.046;4.800;2023-05-16T02:14:10;8.90;;;2.40;;
69789;SDS011;57064;52.046;4.800;2023-05-16T02:16:37;11.88;;;3.00;;
69789;SDS011;57064;52.046;4.800;2023-05-16T02:19:03;13.90;;;3.20;;
69789;SDS011;57064;52.046;4.800;2023-05-16T02:21:30;9.88;;;3.38;;
69789;SDS011;57064;52.046;4.800;2023-05-16T02:23:56;13.48;;;2.75;;
69789;SDS011;57064;52.046;4.800;2023-05-16T02:26:22;8.15;;;2.45;;
69789;SDS011;57064;52.046;4.800;2023-05-16T02:28:48;15.13;;;2.85;;
69789;SDS011;57064;52.046;4.800;2023-05-16T02:31:30;9.57;;;2.50;;
69789;SDS011;57064;52.046;4.800;2023-05-16T02:33:59;5.53;;;2.30;;
69789;SDS011;57064;52.046;4.800;2023-05-16T02:36:25;9.68;;;2.10;;
69789;SDS011;57064;52.046;4.800;2023-05-16T02:38:51;9.20;;;2.35;;
69789;SDS011;57064;52.046;4.800;2023-05-16T02:41:17;13.70;;;2.55;;
69789;SDS011;57064;52.046;4.800;2023-05-16T02:43:46;21.50;;;3.03;;
69789;SDS011;57064;52.046;4.800;2023-05-16T02:46:19;8.32;;;2.42;;
69789;SDS011;57064;52.046;4.800;2023-05-16T02:48:53;13.85;;;3.20;;
69789;SDS011;57064;52.046;4.800;2023-05-16T02:51:19;7.70;;;2.97;;
69789;SDS011;57064;52.046;4.800;2023-05-16T02:53:47;17.35;;;3.50;;
69789;SDS011;57064;52.046;4.800;2023-05-16T02:56:13;11.20;;;2.92;;
69789;SDS011;57064;52.046;4.800;2023-05-16T02:58:39;11.77;;;2.95;;
69789;SDS011;57064;52.046;4.800;2023-05-16T03:01:06;10.07;;;3.25;;
69789;SDS011;57064;52.046;4.800;2023-05-16T03:03:33;16.40;;;3.58;;
69789;SDS011;57064;52.046;4.800;2023-05-16T03:06:01;11.00;;;2.90;;
69789;SDS011;57064;52.046;4.800;2023-05-16T03:08:28;13.77;;;3.17;;
69789;SDS011;57064;52.046;4.800;2023-05-16T03:10:54;8.00;;;2.97;;
69789;SDS011;57064;52.046;4.800;2023-05-16T03:13:20;6.15;;;2.63;;
69789;SDS011;57064;52.046;4.800;2023-05-16T03:15:46;6.70;;;2.50;;
69789;SDS011;57064;52.046;4.800;2023-05-16T03:18:12;7.38;;;2.53;;
69789;SDS011;57064;52.046;4.800;2023-05-16T03:20:38;13.35;;;2.33;;
69789;SDS011;57064;52.046;4.800;2023-05-16T03:23:05;12.23;;;2.75;;
69789;SDS011;57064;52.046;4.800;2023-05-16T03:25:32;10.38;;;2.47;;
69789;SDS011;57064;52.046;4.800;2023-05-16T03:28:01;9.00;;;2.33;;
69789;SDS011;57064;52.046;4.800;2023-05-16T03:30:29;12.30;;;3.15;;
69789;SDS011;57064;52.046;4.800;2023-05-16T03:32:55;11.48;;;2.55;;
69789;SDS011;57064;52.046;4.800;2023-05-16T03:35:21;15.38;;;4.88;;
69789;SDS011;57064;52.046;4.800;2023-05-16T03:37:48;8.80;;;2.75;;
69789;SDS011;57064;52.046;4.800;2023-05-16T03:40:14;13.45;;;3.05;;
69789;SDS011;57064;52.046;4.800;2023-05-16T03:42:40;12.73;;;3.00;;
69789;SDS011;57064;52.046;4.800;2023-05-16T03:45:08;15.18;;;2.38;;
69789;SDS011;57064;52.046;4.800;2023-05-16T03:47:35;11.25;;;2.60;;
69789;SDS011;57064;52.046;4.800;2023-05-16T03:50:01;16.80;;;2.55;;
69789;SDS011;57064;52.046;4.800;2023-05-16T03:52:27;13.20;;;2.63;;
69789;SDS011;57064;52.046;4.800;2023-05-16T03:54:55;8.55;;;2.65;;
69789;SDS011;57064;52.046;4.800;2023-05-16T03:57:21;9.05;;;3.00;;
69789;SDS011;57064;52.046;4.800;2023-05-16T03:59:47;13.75;;;2.08;;
69789;SDS011;57064;52.046;4.800;2023-05-16T04:02:13;7.90;;;1.98;;
69789;SDS011;57064;52.046;4.800;2023-05-16T04:04:40;15.35;;;2.53;;
69789;SDS011;57064;52.046;4.800;2023-05-16T04:07:06;6.20;;;2.00;;
69789;SDS011;57064;52.046;4.800;2023-05-16T04:09:34;13.40;;;2.63;;
69789;SDS011;57064;52.046;4.800;2023-05-16T04:12:00;6.30;;;1.92;;
69789;SDS011;57064;52.046;4.800;2023-05-16T04:14:27;13.15;;;2.17;;
69789;SDS011;57064;52.046;4.800;2023-05-16T04:16:53;8.30;;;2.10;;
69789;SDS011;57064;52.046;4.800;2023-05-16T04:19:19;8.68;;;2.20;;
69789;SDS011;57064;52.046;4.800;2023-05-16T04:21:45;9.68;;;2.60;;
69789;SDS011;57064;52.046;4.800;2023-05-16T04:24:11;7.15;;;1.80;;
69789;SDS011;57064;52.046;4.800;2023-05-16T04:26:37;12.13;;;3.35;;
69789;SDS011;57064;52.046;4.800;2023-05-16T04:29:03;10.43;;;2.13;;
69789;SDS011;57064;52.046;4.800;2023-05-16T04:31:30;6.43;;;2.10;;
69789;SDS011;57064;52.046;4.800;2023-05-16T04:33:56;8.13;;;1.90;;
69789;SDS011;57064;52.046;4.800;2023-05-16T04:36:22;10.27;;;2.10;;
69789;SDS011;57064;52.046;4.800;2023-05-16T04:38:48;10.63;;;2.40;;
69789;SDS011;57064;52.046;4.800;2023-05-16T04:41:14;9.23;;;1.80;;
69789;SDS011;57064;52.046;4.800;2023-05-16T04:43:41;14.15;;;2.00;;
69789;SDS011;57064;52.046;4.800;2023-05-16T04:46:08;8.18;;;1.70;;
69789;SDS011;57064;52.046;4.800;2023-05-16T04:48:34;10.25;;;1.98;;
69789;SDS011;57064;52.046;4.800;2023-05-16T04:51:00;8.52;;;2.50;;
69789;SDS011;57064;52.046;4.800;2023-05-16T04:53:26;7.70;;;1.70;;
69789;SDS011;57064;52.046;4.800;2023-05-16T04:55:52;6.82;;;1.67;;
69789;SDS011;57064;52.046;4.800;2023-05-16T04:58:18;6.53;;;2.22;;
69789;SDS011;57064;52.046;4.800;2023-05-16T05:00:45;10.77;;;1.83;;
69789;SDS011;57064;52.046;4.800;2023-05-16T05:03:11;6.97;;;1.77;;
69789;SDS011;57064;52.046;4.800;2023-05-16T05:05:37;6.97;;;1.30;;
69789;SDS011;57064;52.046;4.800;2023-05-16T05:08:03;6.13;;;1.20;;
69789;SDS011;57064;52.046;4.800;2023-05-16T05:10:30;6.88;;;1.20;;
69789;SDS011;57064;52.046;4.800;2023-05-16T05:12:56;5.85;;;1.20;;
69789;SDS011;57064;52.046;4.800;2023-05-16T05:15:22;7.35;;;1.27;;
69789;SDS011;57064;52.046;4.800;2023-05-16T05:17:49;7.00;;;1.70;;
69789;SDS011;57064;52.046;4.800;2023-05-16T05:20:15;15.25;;;2.08;;
69789;SDS011;57064;52.046;4.800;2023-05-16T05:22:43;5.63;;;2.00;;
69789;SDS011;57064;52.046;4.800;2023-05-16T05:25:11;5.93;;;1.23;;
69789;SDS011;57064;52.046;4.800;2023-05-16T05:27:37;9.68;;;1.45;;
69789;SDS011;57064;52.046;4.800;2023-05-16T05:30:04;5.75;;;1.60;;
69789;SDS011;57064;52.046;4.800;2023-05-16T05:32:30;5.50;;;1.20;;
69789;SDS011;57064;52.046;4.800;2023-05-16T05:34:57;7.45;;;1.27;;
69789;SDS011;57064;52.046;4.800;2023-05-16T05:37:25;5.10;;;1.52;;
69789;SDS011;57064;52.046;4.800;2023-05-16T05:39:52;8.80;;;1.42;;
69789;SDS011;57064;52.046;4.800;2023-05-16T05:42:18;8.73;;;1.80;;
69789;SDS011;57064;52.046;4.800;2023-05-16T05:44:44;5.22;;;1.15;;
69789;SDS011;57064;52.046;4.800;2023-05-16T05:47:12;11.93;;;1.60;;
69789;SDS011;57064;52.046;4.800;2023-05-16T05:49:38;7.22;;;1.10;;
69789;SDS011;57064;52.046;4.800;2023-05-16T05:52:04;7.90;;;1.65;;
69789;SDS011;57064;52.046;4.800;2023-05-16T05:54:30;5.80;;;1.20;;
69789;SDS011;57064;52.046;4.800;2023-05-16T05:56:57;7.60;;;1.00;;
69789;SDS011;57064;52.046;4.800;2023-05-16T05:59:23;5.63;;;1.20;;
69789;SDS011;57064;52.046;4.800;2023-05-16T06:01:50;12.80;;;2.05;;
69789;SDS011;57064;52.046;4.800;2023-05-16T06:04:18;7.60;;;1.23;;
69789;SDS011;57064;52.046;4.800;2023-05-16T06:06:44;8.75;;;1.33;;
69789;SDS011;57064;52.046;4.800;2023-05-16T06:09:11;4.38;;;1.42;;
69789;SDS011;57064;52.046;4.800;2023-05-16T06:11:38;12.07;;;1.40;;
69789;SDS011;57064;52.046;4.800;2023-05-16T06:14:05;14.77;;;1.63;;
69789;SDS011;57064;52.046;4.800;2023-05-16T06:16:31;9.40;;;1.15;;
69789;SDS011;57064;52.046;4.800;2023-05-16T06:18:57;8.68;;;1.10;;
69789;SDS011;57064;52.046;4.800;2023-05-16T06:21:24;4.93;;;0.93;;
69789;SDS011;57064;52.046;4.800;2023-05-16T06:23:50;6.22;;;0.98;;
69789;SDS011;57064;52.046;4.800;2023-05-16T06:26:16;7.60;;;1.05;;
69789;SDS011;57064;52.046;4.800;2023-05-16T06:28:42;7.80;;;1.17;;
69789;SDS011;57064;52.046;4.800;2023-05-16T06:31:08;11.30;;;2.08;;
69789;SDS011;57064;52.046;4.800;2023-05-16T06:33:34;11.52;;;1.23;;
69789;SDS011;57064;52.046;4.800;2023-05-16T06:36:01;4.32;;;0.52;;
69789;SDS011;57064;52.046;4.800;2023-05-16T06:38:27;10.70;;;0.90;;
69789;SDS011;57064;52.046;4.800;2023-05-16T06:40:53;5.72;;;0.90;;
69789;SDS011;57064;52.046;4.800;2023-05-16T06:43:19;3.88;;;0.70;;
69789;SDS011;57064;52.046;4.800;2023-05-16T06:45:45;3.53;;;0.65;;
69789;SDS011;57064;52.046;4.800;2023-05-16T06:48:12;7.60;;;1.00;;
69789;SDS011;57064;52.046;4.800;2023-05-16T06:50:42;3.22;;;0.82;;
69789;SDS011;57064;52.046;4.800;2023-05-16T06:53:17;5.50;;;1.15;;
69789;SDS011;57064;52.046;4.800;2023-05-16T06:55:44;8.55;;;1.15;;
69789;SDS011;57064;52.046;4.800;2023-05-16T06:58:10;4.28;;;0.90;;
69789;SDS011;57064;52.046;4.800;2023-05-16T07:00:39;5.72;;;0.98;;
69789;SDS011;57064;52.046;4.800;2023-05-16T07:03:08;5.40;;;1.15;;
69789;SDS011;57064;52.046;4.800;2023-05-16T07:05:37;6.20;;;1.25;;
69789;SDS011;57064;52.046;4.800;2023-05-16T07:08:04;5.40;;;1.08;;
69789;SDS011;57064;52.046;4.800;2023-05-16T07:10:30;10.00;;;1.20;;
69789;SDS011;57064;52.046;4.800;2023-05-16T07:12:56;8.55;;;1.00;;
69789;SDS011;57064;52.046;4.800;2023-05-16T07:15:25;4.05;;;1.05;;
69789;SDS011;57064;52.046;4.800;2023-05-16T07:17:53;5.78;;;0.77;;
69789;SDS011;57064;52.046;4.800;2023-05-16T07:20:21;4.22;;;1.45;;
69789;SDS011;57064;52.046;4.800;2023-05-16T07:22:47;9.88;;;1.17;;
69789;SDS011;57064;52.046;4.800;2023-05-16T07:25:14;6.38;;;1.23;;
69789;SDS011;57064;52.046;4.800;2023-05-16T07:27:43;2.53;;;0.63;;
69789;SDS011;57064;52.046;4.800;2023-05-16T07:30:10;8.80;;;0.98;;
69789;SDS011;57064;52.046;4.800;2023-05-16T07:32:40;6.60;;;0.88;;
69789;SDS011;57064;52.046;4.800;2023-05-16T07:35:07;3.95;;;0.98;;
69789;SDS011;57064;52.046;4.800;2023-05-16T07:37:34;4.85;;;1.05;;
69789;SDS011;57064;52.046;4.800;2023-05-16T07:40:01;4.15;;;0.80;;
69789;SDS011;57064;52.046;4.800;2023-05-16T07:42:30;5.78;;;0.95;;
69789;SDS011;57064;52.046;4.800;2023-05-16T07:44:58;7.40;;;1.02;;
69789;SDS011;57064;52.046;4.800;2023-05-16T07:47:24;6.38;;;1.35;;
69789;SDS011;57064;52.046;4.800;2023-05-16T07:49:50;10.43;;;1.70;;
69789;SDS011;57064;52.046;4.800;2023-05-16T07:52:17;6.00;;;0.93;;
69789;SDS011;57064;52.046;4.800;2023-05-16T07:54:44;4.93;;;0.82;;
69789;SDS011;57064;52.046;4.800;2023-05-16T07:57:13;5.32;;;0.95;;
69789;SDS011;57064;52.046;4.800;2023-05-16T07:59:40;4.22;;;0.90;;
69789;SDS011;57064;52.046;4.800;2023-05-16T08:02:07;9.25;;;0.98;;
69789;SDS011;57064;52.046;4.800;2023-05-16T08:04:34;3.30;;;0.52;;
69789;SDS011;57064;52.046;4.800;2023-05-16T08:07:00;6.95;;;0.70;;
69789;SDS011;57064;52.046;4.800;2023-05-16T08:09:28;3.10;;;0.55;;
69789;SDS011;57064;52.046;4.800;2023-05-16T08:11:54;5.35;;;0.80;;
69789;SDS011;57064;52.046;4.800;2023-05-16T08:14:20;5.75;;;1.05;;
69789;SDS011;57064;52.046;4.800;2023-05-16T08:16:47;3.45;;;0.68;;
69789;SDS011;57064;52.046;4.800;2023-05-16T08:19:13;4.65;;;0.90;;
69789;SDS011;57064;52.046;4.800;2023-05-16T08:21:39;4.25;;;0.77;;
69789;SDS011;57064;52.046;4.800;2023-05-16T08:24:06;7.72;;;1.30;;
69789;SDS011;57064;52.046;4.800;2023-05-16T08:26:32;3.60;;;1.00;;
69789;SDS011;57064;52.046;4.800;2023-05-16T08:28:59;4.55;;;0.50;;
69789;SDS011;57064;52.046;4.800;2023-05-16T08:31:25;4.88;;;0.70;;
69789;SDS011;57064;52.046;4.800;2023-05-16T08:33:52;8.00;;;1.70;;
69789;SDS011;57064;52.046;4.800;2023-05-16T08:36:18;4.53;;;0.90;;
69789;SDS011;57064;52.046;4.800;2023-05-16T08:38:44;7.20;;;1.00;;
69789;SDS011;57064;52.046;4.800;2023-05-16T08:41:10;5.72;;;1.00;;
69789;SDS011;57064;52.046;4.800;2023-05-16T08:43:36;6.80;;;1.00;;
69789;SDS011;57064;52.046;4.800;2023-05-16T08:46:03;9.02;;;0.80;;
69789;SDS011;57064;52.046;4.800;2023-05-16T08:48:30;5.28;;;0.80;;
69789;SDS011;57064;52.046;4.800;2023-05-16T08:51:00;3.33;;;0.77;;
69789;SDS011;57064;52.046;4.800;2023-05-16T08:53:34;3.97;;;0.55;;
69789;SDS011;57064;52.046;4.800;2023-05-16T08:56:10;1.88;;;0.65;;
69789;SDS011;57064;52.046;4.800;2023-05-16T08:58:37;4.57;;;0.73;;
69789;SDS011;57064;52.046;4.800;2023-05-16T09:01:23;5.00;;;0.88;;
69789;SDS011;57064;52.046;4.800;2023-05-16T09:03:49;5.22;;;0.88;;
69789;SDS011;57064;52.046;4.800;2023-05-16T09:06:16;5.20;;;0.90;;
69789;SDS011;57064;52.046;4.800;2023-05-16T09:08:42;6.60;;;0.80;;
69789;SDS011;57064;52.046;4.800;2023-05-16T09:11:08;4.88;;;1.02;;
69789;SDS011;57064;52.046;4.800;2023-05-16T09:13:38;2.60;;;1.02;;
69789;SDS011;57064;52.046;4.800;2023-05-16T09:16:08;2.97;;;0.75;;
69789;SDS011;57064;52.046;4.800;2023-05-16T09:18:38;3.20;;;0.63;;
69789;SDS011;57064;52.046;4.800;2023-05-16T09:21:06;4.85;;;0.95;;
69789;SDS011;57064;52.046;4.800;2023-05-16T09:23:36;8.25;;;1.20;;
69789;SDS011;57064;52.046;4.800;2023-05-16T09:26:05;4.43;;;0.98;;
69789;SDS011;57064;52.046;4.800;2023-05-16T09:28:36;3.22;;;0.82;;
69789;SDS011;57064;52.046;4.800;2023-05-16T09:31:03;4.30;;;0.70;;
69789;SDS011;57064;52.046;4.800;2023-05-16T09:33:43;8.05;;;1.10;;
69789;SDS011;57064;52.046;4.800;2023-05-16T09:36:09;3.20;;;0.60;;
69789;SDS011;57064;52.046;4.800;2023-05-16T09:38:35;7.07;;;1.95;;
69789;SDS011;57064;52.046;4.800;2023-05-16T09:41:02;6.80;;;0.80;;
69789;SDS011;57064;52.046;4.800;2023-05-16T09:43:28;4.05;;;0.85;;
69789;SDS011;57064;52.046;4.800;2023-05-16T09:45:58;3.75;;;0.60;;
69789;SDS011;57064;52.046;4.800;2023-05-16T09:48:25;5.05;;;1.05;;
69789;SDS011;57064;52.046;4.800;2023-05-16T09:50:52;3.53;;;0.63;;
69789;SDS011;57064;52.046;4.800;2023-05-16T09:53:25;5.45;;;0.60;;
69789;SDS011;57064;52.046;4.800;2023-05-16T09:56:02;3.55;;;0.75;;
69789;SDS011;57064;52.046;4.800;2023-05-16T09:58:34;2.28;;;0.45;;
69789;SDS011;57064;52.046;4.800;2023-05-16T10:01:03;6.88;;;0.98;;
69789;SDS011;57064;52.046;4.800;2023-05-16T10:03:32;3.85;;;0.80;;
69789;SDS011;57064;52.046;4.800;2023-05-16T10:06:00;4.15;;;0.57;;
69789;SDS011;57064;52.046;4.800;2023-05-16T10:08:27;4.55;;;0.75;;
69789;SDS011;57064;52.046;4.800;2023-05-16T10:11:03;6.22;;;0.82;;
69789;SDS011;57064;52.046;4.800;2023-05-16T10:13:45;3.05;;;0.55;;
69789;SDS011;57064;52.046;4.800;2023-05-16T10:16:17;2.03;;;0.85;;
69789;SDS011;57064;52.046;4.800;2023-05-16T10:18:45;5.65;;;1.08;;
69789;SDS011;57064;52.046;4.800;2023-05-16T10:21:14;5.18;;;0.77;;
69789;SDS011;57064;52.046;4.800;2023-05-16T10:23:42;5.57;;;1.38;;
69789;SDS011;57064;52.046;4.800;2023-05-16T10:26:12;7.55;;;1.80;;
69789;SDS011;57064;52.046;4.800;2023-05-16T10:28:40;3.83;;;0.80;;
69789;SDS011;57064;52.046;4.800;2023-05-16T10:31:08;6.13;;;0.90;;
69789;SDS011;57064;52.046;4.800;2023-05-16T10:33:35;4.07;;;0.55;;
69789;SDS011;57064;52.046;4.800;2023-05-16T10:36:03;2.72;;;0.57;;
69789;SDS011;57064;52.046;4.800;2023-05-16T10:38:29;3.03;;;0.60;;
69789;SDS011;57064;52.046;4.800;2023-05-16T10:40:56;5.93;;;0.68;;
69789;SDS011;57064;52.046;4.800;2023-05-16T10:43:25;4.30;;;0.60;;
69789;SDS011;57064;52.046;4.800;2023-05-16T10:46:02;3.97;;;0.80;;
69789;SDS011;57064;52.046;4.800;2023-05-16T10:48:34;4.95;;;0.70;;
69789;SDS011;57064;52.046;4.800;2023-05-16T10:51:02;2.53;;;0.65;;
69789;SDS011;57064;52.046;4.800;2023-05-16T10:53:52;3.28;;;0.60;;
69789;SDS011;57064;52.046;4.800;2023-05-16T10:56:24;2.97;;;0.70;;
69789;SDS011;57064;52.046;4.800;2023-05-16T10:58:52;2.65;;;0.43;;
69789;SDS011;57064;52.046;4.800;2023-05-16T11:06:23;2.47;;;0.52;;
69789;SDS011;57064;52.046;4.800;2023-05-16T11:14:26;4.72;;;0.93;;
69789;SDS011;57064;52.046;4.800;2023-05-16T11:22:21;3.05;;;0.65;;
69789;SDS011;57064;52.046;4.800;2023-05-16T11:27:26;6.70;;;0.80;;
69789;SDS011;57064;52.046;4.800;2023-05-16T11:29:53;6.90;;;0.93;;
69789;SDS011;57064;52.046;4.800;2023-05-16T11:32:46;8.35;;;0.70;;
69789;SDS011;57064;52.046;4.800;2023-05-16T11:35:13;3.28;;;0.50;;
69789;SDS011;57064;52.046;4.800;2023-05-16T11:37:41;4.78;;;0.98;;
69789;SDS011;57064;52.046;4.800;2023-05-16T11:40:09;6.88;;;0.60;;
69789;SDS011;57064;52.046;4.800;2023-05-16T11:42:37;2.40;;;0.85;;
69789;SDS011;57064;52.046;4.800;2023-05-16T11:45:04;3.03;;;0.73;;
69789;SDS011;57064;52.046;4.800;2023-05-16T11:47:37;3.17;;;0.52;;
69789;SDS011;57064;52.046;4.800;2023-05-16T11:50:11;7.25;;;1.00;;
69789;SDS011;57064;52.046;4.800;2023-05-16T11:52:49;1.50;;;0.60;;
69789;SDS011;57064;52.046;4.800;2023-05-16T11:55:21;3.70;;;0.82;;
69789;SDS011;57064;52.046;4.800;2023-05-16T11:57:52;3.88;;;0.80;;
69789;SDS011;57064;52.046;4.800;2023-05-16T12:00:22;5.97;;;0.85;;
69789;SDS011;57064;52.046;4.800;2023-05-16T12:02:50;1.45;;;0.65;;
69789;SDS011;57064;52.046;4.800;2023-05-16T12:05:18;7.20;;;0.88;;
69789;SDS011;57064;52.046;4.800;2023-05-16T12:07:50;4.23;;;0.80;;
69789;SDS011;57064;52.046;4.800;2023-05-16T12:10:20;4.43;;;0.80;;
69789;SDS011;57064;52.046;4.800;2023-05-16T12:12:48;7.80;;;0.73;;
69789;SDS011;57064;52.046;4.800;2023-05-16T12:15:16;6.15;;;0.95;;
69789;SDS011;57064;52.046;4.800;2023-05-16T12:17:43;4.13;;;0.57;;
69789;SDS011;57064;52.046;4.800;2023-05-16T12:20:10;4.97;;;0.52;;
69789;SDS011;57064;52.046;4.800;2023-05-16T12:22:42;4.65;;;0.70;;
69789;SDS011;57064;52.046;4.800;2023-05-16T12:25:25;5.32;;;0.60;;
69789;SDS011;57064;52.046;4.800;2023-05-16T12:27:52;6.45;;;0.70;;
69789;SDS011;57064;52.046;4.800;2023-05-16T12:30:23;3.50;;;0.70;;
69789;SDS011;57064;52.046;4.800;2023-05-16T12:33:03;4.68;;;0.52;;
69789;SDS011;57064;52.046;4.800;2023-05-16T12:35:40;4.07;;;0.77;;
69789;SDS011;57064;52.046;4.800;2023-05-16T12:38:08;8.55;;;0.95;;
69789;SDS011;57064;52.046;4.800;2023-05-16T12:40:36;4.80;;;1.10;;
69789;SDS011;57064;52.046;4.800;2023-05-16T12:43:13;5.22;;;0.60;;
69789;SDS011;57064;52.046;4.800;2023-05-16T12:45:40;7.78;;;0.63;;
69789;SDS011;57064;52.046;4.800;2023-05-16T12:48:12;5.72;;;0.80;;
69789;SDS011;57064;52.046;4.800;2023-05-16T12:50:39;3.35;;;0.73;;
69789;SDS011;57064;52.046;4.800;2023-05-16T12:53:11;1.77;;;0.65;;
69789;SDS011;57064;52.046;4.800;2023-05-16T12:55:38;4.93;;;0.90;;
69789;SDS011;57064;52.046;4.800;2023-05-16T12:58:06;5.85;;;0.88;;
69789;SDS011;57064;52.046;4.800;2023-05-16T13:00:36;2.45;;;0.98;;
69789;SDS011;57064;52.046;4.800;2023-05-16T13:03:04;3.75;;;0.70;;
69789;SDS011;57064;52.046;4.800;2023-05-16T13:05:31;6.55;;;0.80;;
69789;SDS011;57064;52.046;4.800;2023-05-16T13:07:58;5.97;;;0.63;;
69789;SDS011;57064;52.046;4.800;2023-05-16T13:10:25;3.97;;;0.70;;
69789;SDS011;57064;52.046;4.800;2023-05-16T13:12:52;2.38;;;0.70;;
69789;SDS011;57064;52.046;4.800;2023-05-16T13:15:22;4.75;;;1.25;;
69789;SDS011;57064;52.046;4.800;2023-05-16T13:17:48;6.68;;;0.95;;
69789;SDS011;57064;52.046;4.800;2023-05-16T13:20:16;2.47;;;0.77;;
69789;SDS011;57064;52.046;4.800;2023-05-16T13:22:42;3.17;;;0.65;;
69789;SDS011;57064;52.046;4.800;2023-05-16T13:25:09;5.20;;;0.65;;
69789;SDS011;57064;52.046;4.800;2023-05-16T13:27:35;2.95;;;0.57;;
69789;SDS011;57064;52.046;4.800;2023-05-16T13:30:02;2.95;;;0.90;;
69789;SDS011;57064;52.046;4.800;2023-05-16T13:32:28;6.95;;;1.65;;
69789;SDS011;57064;52.046;4.800;2023-05-16T13:34:54;2.42;;;0.75;;
69789;SDS011;57064;52.046;4.800;2023-05-16T13:37:20;4.65;;;0.70;;
69789;SDS011;57064;52.046;4.800;2023-05-16T13:39:48;4.30;;;0.57;;
69789;SDS011;57064;52.046;4.800;2023-05-16T13:42:14;3.47;;;0.50;;
69789;SDS011;57064;52.046;4.800;2023-05-16T13:44:40;5.18;;;0.82;;
69789;SDS011;57064;52.046;4.800;2023-05-16T13:47:07;3.25;;;0.93;;
69789;SDS011;57064;52.046;4.800;2023-05-16T13:49:33;4.43;;;0.90;;
69789;SDS011;57064;52.046;4.800;2023-05-16T13:51:59;4.95;;;0.70;;
69789;SDS011;57064;52.046;4.800;2023-05-16T13:54:25;4.75;;;0.88;;
69789;SDS011;57064;52.046;4.800;2023-05-16T13:56:52;6.22;;;1.10;;
69789;SDS011;57064;52.046;4.800;2023-05-16T13:59:18;5.47;;;0.95;;
69789;SDS011;57064;52.046;4.800;2023-05-16T14:01:44;3.20;;;0.57;;
69789;SDS011;57064;52.046;4.800;2023-05-16T14:04:10;6.28;;;0.90;;
69789;SDS011;57064;52.046;4.800;2023-05-16T14:06:36;4.70;;;0.70;;
69789;SDS011;57064;52.046;4.800;2023-05-16T14:09:02;2.72;;;0.43;;
69789;SDS011;57064;52.046;4.800;2023-05-16T14:11:28;4.53;;;0.70;;
69789;SDS011;57064;52.046;4.800;2023-05-16T14:13:55;5.10;;;0.90;;
69789;SDS011;57064;52.046;4.800;2023-05-16T14:16:22;4.72;;;0.90;;
69789;SDS011;57064;52.046;4.800;2023-05-16T14:18:48;5.53;;;0.57;;
69789;SDS011;57064;52.046;4.800;2023-05-16T14:21:14;5.85;;;0.70;;
69789;SDS011;57064;52.046;4.800;2023-05-16T14:23:40;2.65;;;0.55;;
69789;SDS011;57064;52.046;4.800;2023-05-16T14:26:06;6.95;;;0.77;;
69789;SDS011;57064;52.046;4.800;2023-05-16T14:28:33;3.33;;;0.80;;
69789;SDS011;57064;52.046;4.800;2023-05-16T14:30:59;3.20;;;0.60;;
69789;SDS011;57064;52.046;4.800;2023-05-16T14:33:25;3.80;;;0.60;;
69789;SDS011;57064;52.046;4.800;2023-05-16T14:35:51;2.58;;;0.40;;
69789;SDS011;57064;52.046;4.800;2023-05-16T14:38:18;2.92;;;0.70;;
69789;SDS011;57064;52.046;4.800;2023-05-16T14:40:44;2.88;;;0.68;;
69789;SDS011;57064;52.046;4.800;2023-05-16T14:43:11;5.05;;;0.90;;
69789;SDS011;57064;52.046;4.800;2023-05-16T14:45:38;4.05;;;0.73;;
69789;SDS011;57064;52.046;4.800;2023-05-16T14:48:05;4.53;;;0.98;;
69789;SDS011;57064;52.046;4.800;2023-05-16T14:50:31;8.57;;;1.00;;
69789;SDS011;57064;52.046;4.800;2023-05-16T14:52:57;5.32;;;0.90;;
69789;SDS011;57064;52.046;4.800;2023-05-16T14:55:23;2.05;;;0.55;;
69789;SDS011;57064;52.046;4.800;2023-05-16T14:57:49;5.55;;;0.98;;
69789;SDS011;57064;52.046;4.800;2023-05-16T15:00:16;3.78;;;0.70;;
69789;SDS011;57064;52.046;4.800;2023-05-16T15:02:46;2.63;;;0.70;;
69789;SDS011;57064;52.046;4.800;2023-05-16T15:05:12;3.42;;;0.80;;
69789;SDS011;57064;52.046;4.800;2023-05-16T15:07:39;2.83;;;0.57;;
69789;SDS011;57064;52.046;4.800;2023-05-16T15:10:06;1.75;;;0.57;;
69789;SDS011;57064;52.046;4.800;2023-05-16T15:12:33;5.68;;;0.73;;
69789;SDS011;57064;52.046;4.800;2023-05-16T15:14:59;4.68;;;0.73;;
69789;SDS011;57064;52.046;4.800;2023-05-16T15:17:25;2.80;;;0.75;;
69789;SDS011;57064;52.046;4.800;2023-05-16T15:19:51;4.90;;;1.20;;
69789;SDS011;57064;52.046;4.800;2023-05-16T15:22:18;5.18;;;0.90;;